ΕΜΥ, Εθνική Μετεωρολογική Υπηρεσία - Δελτία Καιρού, Προγνώσεις

ΑΕΡΟΝΑΥΤΙΛΙΑ

GREEK AIRPORTS CODES

LGAV 210820Z 02016KT CAVOK 25/04 Q1018 RMK NOSIG=

EUROPEAN AIRPORTS CODES

LFPO 210800Z 26004KT 210V300 9999 FEW020 BKN038 BKN260 17/12Q1024=